Time;durP1;ratioP1;P1;durP2;ratioP2;P2;SDS_P1;SDS_P2;PMS_P1;PMS_P2;Temp;Humidity;BMP_temperature;BMP_pressure;BME280_temperature;BME280_humidity;BME280_pressure;Samples;Min_cycle;Max_cycle;Signal;HPM_P1;HPM_P2
2022/09/21 00:00:04;;;;;;;9.88;4.20;;;8.40;99.90;;;;;;5048299;28;20498;-57
2022/09/21 00:02:30;;;;;;;9.48;3.97;;;8.40;99.90;;;;;;5063447;28;20045;-57
2022/09/21 00:04:56;;;;;;;7.15;4.13;;;8.40;99.90;;;;;;5050952;28;20048;-57
2022/09/21 00:07:21;;;;;;;8.35;4.30;;;8.50;99.90;;;;;;5058729;28;20098;-58
2022/09/21 00:09:47;;;;;;;9.25;4.50;;;8.40;99.90;;;;;;5053665;28;20040;-58
2022/09/21 00:12:13;;;;;;;5.57;3.78;;;8.30;99.90;;;;;;5055447;28;20033;-59
2022/09/21 00:14:39;;;;;;;5.72;3.70;;;8.30;99.90;;;;;;5059391;28;20045;-59
2022/09/21 00:17:04;;;;;;;8.40;4.38;;;8.30;99.90;;;;;;5051012;28;20076;-60
2022/09/21 00:19:30;;;;;;;7.68;3.97;;;8.30;99.90;;;;;;5061285;28;20268;-58
2022/09/21 00:21:56;;;;;;;14.18;4.45;;;8.30;99.90;;;;;;5046879;28;20049;-59
2022/09/21 00:24:23;;;;;;;9.82;4.13;;;8.10;99.90;;;;;;5063159;28;20045;-57
2022/09/21 00:26:48;;;;;;;8.43;4.15;;;8.10;99.90;;;;;;5051123;28;20230;-58
2022/09/21 00:29:14;;;;;;;8.60;4.82;;;8.10;99.90;;;;;;5058467;28;20167;-57
2022/09/21 00:31:40;;;;;;;7.95;4.28;;;8.10;99.90;;;;;;5053895;28;20499;-59
2022/09/21 00:34:08;;;;;;;9.68;4.63;;;8.00;99.90;;;;;;5055205;28;20124;-56
2022/09/21 00:36:34;;;;;;;9.13;4.90;;;8.10;99.90;;;;;;5058196;28;20044;-57
2022/09/21 00:39:01;;;;;;;9.02;4.18;;;8.10;99.90;;;;;;5050478;28;20041;-58
2022/09/21 00:41:28;;;;;;;8.35;4.60;;;8.10;99.90;;;;;;5062716;28;20036;-57
2022/09/21 00:44:19;;;;;;;8.45;5.18;;;8.10;99.90;;;;;;5047597;28;20067;-58
2022/09/21 00:46:47;;;;;;;7.20;4.50;;;8.00;99.90;;;;;;5057834;28;20373;-56
2022/09/21 00:49:14;;;;;;;7.32;4.38;;;8.00;99.90;;;;;;5054952;28;20107;-58
2022/09/21 00:51:41;;;;;;;9.70;4.65;;;8.00;99.90;;;;;;5052886;28;20098;-59
2022/09/21 00:54:13;;;;;;;10.40;4.80;;;7.90;99.90;;;;;;5059635;28;20651;-58
2022/09/21 00:56:40;;;;;;;8.10;4.88;;;8.00;99.90;;;;;;5049233;28;20423;-59
2022/09/21 00:59:08;;;;;;;8.25;5.03;;;8.00;99.90;;;;;;5063902;28;20060;-57
2022/09/21 01:01:35;;;;;;;8.18;4.60;;;8.00;99.90;;;;;;5048626;28;20417;-57
2022/09/21 01:04:02;;;;;;;8.45;4.63;;;8.00;99.90;;;;;;5059634;28;20048;-58
2022/09/21 01:06:27;;;;;;;7.55;4.65;;;8.00;99.90;;;;;;5052092;28;20509;-59
2022/09/21 01:08:57;;;;;;;7.13;4.75;;;8.00;99.90;;;;;;5055619;28;20052;-58
2022/09/21 01:11:39;;;;;;;8.93;4.88;;;8.00;99.90;;;;;;5057096;28;20044;-58
2022/09/21 01:14:24;;;;;;;10.30;5.15;;;8.00;99.90;;;;;;5048629;28;20052;-58
2022/09/21 01:16:50;;;;;;;7.13;4.43;;;8.00;99.90;;;;;;5048045;28;20068;-57
2022/09/21 01:19:52;;;;;;;12.27;4.78;;;8.00;99.90;;;;;;5059391;28;20087;-57
2022/09/21 01:22:46;;;;;;;8.40;4.47;;;8.00;99.90;;;;;;5055159;28;20052;-56
2022/09/21 01:25:12;;;;;;;8.55;4.70;;;8.00;99.90;;;;;;5046852;28;20098;-57
2022/09/21 01:28:07;;;;;;;9.20;4.70;;;7.90;99.90;;;;;;5062878;28;20044;-57
2022/09/21 01:30:36;;;;;;;11.00;4.97;;;7.90;99.90;;;;;;5051914;28;20051;-58
2022/09/21 01:33:06;;;;;;;7.15;4.80;;;7.90;99.90;;;;;;5054186;28;20037;-58
2022/09/21 01:35:56;;;;;;;9.93;5.20;;;7.90;99.90;;;;;;5057369;28;20449;-57
2022/09/21 01:38:53;;;;;;;6.95;4.53;;;7.90;99.90;;;;;;5046281;28;20531;-58
2022/09/21 01:41:24;;;;;;;7.50;5.10;;;8.00;99.90;;;;;;5057670;28;20061;-58
2022/09/21 01:43:57;;;;;;;7.30;4.95;;;7.90;99.90;;;;;;5053491;28;20107;-58
2022/09/21 01:46:27;;;;;;;8.02;4.57;;;7.90;99.90;;;;;;5051780;28;20492;-57
2022/09/21 01:48:58;;;;;;;8.27;4.80;;;7.90;99.90;;;;;;5058918;28;20080;-57
2022/09/21 01:51:27;;;;;;;7.45;4.35;;;7.80;99.90;;;;;;5045853;28;20044;-57
2022/09/21 01:54:09;;;;;;;6.88;4.32;;;7.80;99.90;;;;;;5046290;28;20048;-58
2022/09/21 01:56:46;;;;;;;9.15;4.80;;;7.80;99.90;;;;;;5057358;28;20110;-58
2022/09/21 01:59:36;;;;;;;7.60;5.00;;;7.80;99.90;;;;;;5053500;28;20505;-58
2022/09/21 02:02:14;;;;;;;6.47;4.45;;;7.80;99.90;;;;;;5048526;28;20183;-57
2022/09/21 02:04:40;;;;;;;8.10;5.15;;;7.70;99.90;;;;;;5062659;28;20040;-59
2022/09/21 02:07:06;;;;;;;7.00;4.68;;;7.70;99.90;;;;;;5046308;28;20286;-59
2022/09/21 02:09:35;;;;;;;7.50;4.32;;;7.70;99.90;;;;;;5058766;28;20052;-57
2022/09/21 02:12:01;;;;;;;7.63;4.70;;;7.70;99.90;;;;;;5051588;28;20039;-57
2022/09/21 02:14:28;;;;;;;6.88;4.72;;;7.60;99.90;;;;;;5053891;28;20041;-57
2022/09/21 02:17:07;;;;;;;7.32;4.60;;;7.60;99.90;;;;;;5055665;28;20048;-58
2022/09/21 02:19:43;;;;;;;9.45;4.82;;;7.60;99.90;;;;;;5047791;28;20048;-58
2022/09/21 02:22:28;;;;;;;5.47;4.20;;;7.60;99.90;;;;;;5061663;28;20511;-57
2022/09/21 02:25:16;;;;;;;8.93;4.80;;;7.60;99.90;;;;;;5049666;28;20120;-57
2022/09/21 02:28:00;;;;;;;11.65;4.80;;;7.50;99.90;;;;;;5051759;28;20656;-57
2022/09/21 02:30:26;;;;;;;7.45;4.57;;;7.50;99.90;;;;;;5043662;28;20400;-57
2022/09/21 02:33:10;;;;;;;7.93;4.70;;;7.50;99.90;;;;;;5043907;28;20047;-58
2022/09/21 02:35:51;;;;;;;8.50;4.63;;;7.60;99.90;;;;;;5053620;28;20275;-58
2022/09/21 02:38:59;;;;;;;7.47;4.60;;;7.50;99.90;;;;;;5062294;28;20049;-57
2022/09/21 02:41:32;;;;;;;6.22;4.60;;;7.50;99.90;;;;;;4991891;28;20311;-57
2022/09/21 02:44:22;;;;;;;7.18;4.13;;;7.40;99.90;;;;;;5005396;28;20544;-57
2022/09/21 02:46:53;;;;;;;8.35;4.53;;;7.40;99.90;;;;;;5029904;28;20067;-59
2022/09/21 02:49:25;;;;;;;6.43;4.50;;;7.40;99.90;;;;;;5058444;28;20384;-57
2022/09/21 02:51:53;;;;;;;7.93;4.63;;;7.40;99.90;;;;;;5058167;28;20048;-58
2022/09/21 02:54:23;;;;;;;7.13;4.78;;;7.40;99.90;;;;;;5063120;28;20116;-57
2022/09/21 02:56:50;;;;;;;8.93;4.97;;;7.30;99.90;;;;;;5053941;28;20053;-58
2022/09/21 02:59:16;;;;;;;8.75;4.72;;;7.30;99.90;;;;;;5066175;28;20256;-58
2022/09/21 03:01:43;;;;;;;8.20;4.68;;;7.40;99.90;;;;;;5034426;28;20045;-58
2022/09/21 03:04:09;;;;;;;8.93;5.18;;;7.30;99.90;;;;;;5065851;28;20419;-57
2022/09/21 03:06:35;;;;;;;8.70;4.90;;;7.30;99.90;;;;;;5055748;28;20045;-58
2022/09/21 03:09:01;;;;;;;7.72;4.82;;;7.40;99.90;;;;;;5061396;28;20173;-56
2022/09/21 03:11:27;;;;;;;7.05;4.50;;;7.30;99.90;;;;;;5060050;28;20071;-57
2022/09/21 03:13:53;;;;;;;7.93;4.57;;;7.30;99.90;;;;;;5056945;28;20380;-57
2022/09/21 03:16:19;;;;;;;6.80;4.22;;;7.50;99.90;;;;;;5064847;28;20055;-57
2022/09/21 03:18:45;;;;;;;6.45;4.50;;;7.30;99.90;;;;;;5052264;28;20041;-58
2022/09/21 03:21:11;;;;;;;10.93;4.57;;;7.30;99.90;;;;;;5066973;28;20111;-58
2022/09/21 03:23:37;;;;;;;8.75;4.80;;;7.40;99.90;;;;;;5053313;28;20060;-58
2022/09/21 03:26:03;;;;;;;6.82;4.88;;;7.20;99.90;;;;;;5064799;28;20032;-58
2022/09/21 03:28:28;;;;;;;8.57;4.78;;;7.20;99.90;;;;;;5056794;28;20101;-58
2022/09/21 03:30:54;;;;;;;8.63;4.28;;;7.20;99.90;;;;;;5060240;28;20452;-58
2022/09/21 03:33:20;;;;;;;9.65;4.45;;;7.20;99.90;;;;;;5060609;28;20483;-58
2022/09/21 03:35:49;;;;;;;8.57;4.93;;;7.20;99.90;;;;;;5055985;28;20041;-58
2022/09/21 03:38:15;;;;;;;7.05;4.38;;;7.10;99.90;;;;;;5063338;28;20510;-58
2022/09/21 03:40:46;;;;;;;8.18;4.40;;;7.20;99.90;;;;;;5051844;28;20099;-58
2022/09/21 03:43:12;;;;;;;9.30;4.30;;;7.20;99.90;;;;;;5066508;28;20052;-58
2022/09/21 03:45:39;;;;;;;8.45;4.30;;;7.30;99.90;;;;;;5062149;28;20041;-57
2022/09/21 03:48:05;;;;;;;9.98;4.70;;;7.20;99.90;;;;;;5053174;28;20039;-58
2022/09/21 03:50:31;;;;;;;8.32;4.53;;;7.10;99.90;;;;;;5056334;28;20045;-58
2022/09/21 03:52:57;;;;;;;6.63;4.45;;;7.10;99.90;;;;;;5056924;28;20120;-58
2022/09/21 03:55:23;;;;;;;7.00;4.38;;;7.10;99.90;;;;;;5053117;28;20041;-57
2022/09/21 03:57:49;;;;;;;7.25;4.38;;;7.00;99.90;;;;;;5061282;28;20041;-58
2022/09/21 04:00:15;;;;;;;9.27;4.70;;;7.20;99.90;;;;;;5049136;28;20033;-58
2022/09/21 04:02:41;;;;;;;8.00;4.50;;;7.10;99.90;;;;;;5064142;28;20044;-58
2022/09/21 04:05:13;;;;;;;8.98;4.45;;;7.10;99.90;;;;;;5049372;28;20041;-58
2022/09/21 04:07:39;;;;;;;8.77;4.50;;;7.10;99.90;;;;;;5060627;28;20172;-58
2022/09/21 04:10:11;;;;;;;7.63;4.28;;;7.10;99.90;;;;;;5053108;28;20491;-57
2022/09/21 04:12:40;;;;;;;7.97;4.53;;;7.10;99.90;;;;;;5055313;28;20049;-59
2022/09/21 04:15:06;;;;;;;9.55;5.20;;;7.10;99.90;;;;;;5059426;28;20102;-56
2022/09/21 04:17:33;;;;;;;7.78;4.90;;;7.10;99.90;;;;;;5050685;28;20045;-57
2022/09/21 04:20:00;;;;;;;8.10;5.22;;;7.10;99.90;;;;;;5063047;28;20047;-57
2022/09/21 04:22:25;;;;;;;9.57;4.78;;;7.10;99.90;;;;;;5046516;28;20057;-58
2022/09/21 04:24:51;;;;;;;8.38;4.68;;;7.00;99.90;;;;;;5062334;28;20044;-57
2022/09/21 04:27:17;;;;;;;11.93;4.75;;;7.00;99.90;;;;;;5051048;28;20048;-57
2022/09/21 04:29:43;;;;;;;10.25;4.70;;;7.00;99.90;;;;;;5040326;28;20066;-57
2022/09/21 04:32:12;;;;;;;7.57;4.82;;;7.00;99.90;;;;;;5055563;28;20044;-58
2022/09/21 04:34:38;;;;;;;9.00;4.70;;;7.00;99.90;;;;;;5054186;28;20112;-58
2022/09/21 04:37:07;;;;;;;8.90;4.65;;;7.10;99.90;;;;;;5059034;28;20127;-58
2022/09/21 04:39:33;;;;;;;8.18;4.60;;;7.20;99.90;;;;;;5049012;28;20041;-58
2022/09/21 04:41:59;;;;;;;7.53;4.40;;;7.30;99.90;;;;;;5063464;28;20172;-57
2022/09/21 04:44:24;;;;;;;7.35;4.63;;;7.20;99.90;;;;;;5047547;28;20045;-58
2022/09/21 04:46:50;;;;;;;6.60;4.38;;;7.30;99.90;;;;;;5060703;28;20041;-57
2022/09/21 04:49:16;;;;;;;6.57;4.05;;;7.30;99.90;;;;;;5051571;28;20040;-57
2022/09/21 04:51:41;;;;;;;7.72;4.45;;;7.20;99.90;;;;;;5055635;28;20041;-60
2022/09/21 04:54:07;;;;;;;8.23;4.50;;;7.10;99.90;;;;;;5056439;28;20114;-57
2022/09/21 04:56:33;;;;;;;8.27;4.38;;;7.10;99.90;;;;;;5051456;28;20510;-58
2022/09/21 04:58:59;;;;;;;7.35;4.38;;;7.10;99.90;;;;;;5059722;28;20043;-57
2022/09/21 05:01:25;;;;;;;14.18;5.30;;;6.90;99.90;;;;;;5048282;28;20047;-58
2022/09/21 05:03:50;;;;;;;8.98;4.53;;;7.00;99.90;;;;;;5045164;28;20052;-56
2022/09/21 05:06:16;;;;;;;9.35;5.20;;;6.90;99.90;;;;;;5046727;28;20343;-58
2022/09/21 05:11:26;;;;;;;7.10;5.28;;;6.90;99.90;;;;;;5053722;28;20067;-58
2022/09/21 05:13:52;;;;;;;7.35;4.30;;;7.00;99.90;;;;;;5052956;28;20041;-59
2022/09/21 05:16:18;;;;;;;9.32;4.78;;;7.00;99.90;;;;;;5057884;28;20544;-57
2022/09/21 05:18:44;;;;;;;8.48;4.78;;;7.00;99.90;;;;;;5049346;28;20043;-57
2022/09/21 05:21:12;;;;;;;8.43;5.22;;;7.00;99.90;;;;;;5059756;28;20368;-59
2022/09/21 05:23:37;;;;;;;8.80;4.80;;;6.90;99.90;;;;;;5045028;28;20115;-57
2022/09/21 05:26:04;;;;;;;11.05;5.13;;;7.00;99.90;;;;;;5060863;28;20053;-58
2022/09/21 05:28:30;;;;;;;9.20;5.20;;;7.00;99.90;;;;;;5049478;28;20513;-57
2022/09/21 05:31:03;;;;;;;8.77;4.80;;;6.90;99.90;;;;;;5056666;28;20390;-58
2022/09/21 05:33:31;;;;;;;9.23;4.95;;;7.00;99.90;;;;;;5054913;28;20041;-57
2022/09/21 05:36:48;;;;;;;8.30;4.60;;;7.10;99.90;;;;;;5050377;28;20064;-58
2022/09/21 05:39:14;;;;;;;10.80;5.25;;;7.00;99.90;;;;;;5048453;28;20051;-57
2022/09/21 05:41:40;;;;;;;7.35;4.80;;;7.00;99.90;;;;;;5057395;28;20041;-60
2022/09/21 05:44:06;;;;;;;12.88;6.20;;;6.90;99.90;;;;;;5052855;28;20151;-57
2022/09/21 05:46:36;;;;;;;9.82;5.93;;;7.00;99.90;;;;;;5053632;28;20496;-59
2022/09/21 05:49:13;;;;;;;7.03;5.20;;;7.00;99.90;;;;;;5057281;28;20040;-58
2022/09/21 05:51:45;;;;;;;9.10;5.78;;;6.90;99.90;;;;;;5046983;28;20060;-58
2022/09/21 05:54:29;;;;;;;10.48;5.25;;;7.00;99.90;;;;;;5060697;28;20044;-57
2022/09/21 05:57:09;;;;;;;9.32;5.60;;;6.90;99.90;;;;;;5049479;28;20072;-59
2022/09/21 05:59:49;;;;;;;10.95;5.43;;;7.00;99.90;;;;;;5054662;28;20190;-58
2022/09/21 06:02:21;;;;;;;11.85;5.57;;;7.10;99.90;;;;;;5056866;28;20044;-58
2022/09/21 06:04:49;;;;;;;9.73;5.65;;;7.20;99.90;;;;;;5047670;28;20045;-57
2022/09/21 06:07:14;;;;;;;10.93;6.57;;;7.10;99.90;;;;;;5060662;28;20048;-57
2022/09/21 06:09:40;;;;;;;11.07;5.97;;;7.10;99.90;;;;;;5046476;28;20067;-59
2022/09/21 06:12:10;;;;;;;7.65;6.07;;;7.50;99.90;;;;;;5058835;28;20369;-57
2022/09/21 06:14:36;;;;;;;11.00;6.28;;;7.20;99.90;;;;;;5051542;28;20448;-58
2022/09/21 06:17:02;;;;;;;11.73;6.03;;;7.30;99.90;;;;;;5054589;28;20390;-56
2022/09/21 06:19:27;;;;;;;11.10;6.97;;;7.40;99.90;;;;;;5053413;28;20051;-57
2022/09/21 06:21:53;;;;;;;12.27;6.75;;;7.30;99.90;;;;;;5049506;28;20044;-58
2022/09/21 06:24:18;;;;;;;11.50;6.97;;;7.40;99.90;;;;;;5058413;28;20048;-58
2022/09/21 06:26:44;;;;;;;10.45;6.90;;;7.50;99.90;;;;;;5046341;28;20079;-57
2022/09/21 06:29:10;;;;;;;10.38;6.60;;;7.50;99.90;;;;;;5061453;28;20128;-58
2022/09/21 06:31:35;;;;;;;12.68;6.43;;;7.60;99.90;;;;;;5046290;28;20090;-58
2022/09/21 06:34:01;;;;;;;8.43;6.15;;;7.50;99.90;;;;;;5057037;28;20040;-57
2022/09/21 06:36:27;;;;;;;7.97;5.80;;;7.60;99.90;;;;;;5050138;28;20041;-58
2022/09/21 06:38:53;;;;;;;7.75;5.63;;;7.70;99.90;;;;;;5054161;28;20037;-57
2022/09/21 06:41:18;;;;;;;7.82;5.53;;;7.80;99.90;;;;;;5054862;28;20071;-59
2022/09/21 06:43:44;;;;;;;11.95;6.18;;;8.00;99.90;;;;;;5049995;28;20068;-58
2022/09/21 06:46:09;;;;;;;11.05;6.40;;;8.00;99.90;;;;;;5059046;28;20422;-60
2022/09/21 06:48:35;;;;;;;12.73;5.90;;;8.10;99.90;;;;;;5044956;28;20522;-59
2022/09/21 06:51:03;;;;;;;11.45;5.82;;;8.10;99.90;;;;;;5060399;28;20582;-58
2022/09/21 06:53:31;;;;;;;10.77;5.78;;;8.30;99.90;;;;;;5046933;28;20036;-59
2022/09/21 06:56:07;;;;;;;13.50;5.35;;;8.40;99.90;;;;;;5056970;28;20048;-59
2022/09/21 06:58:34;;;;;;;10.13;5.20;;;8.60;99.90;;;;;;5052857;28;20040;-58
2022/09/21 07:01:08;;;;;;;11.15;5.50;;;8.60;99.90;;;;;;5051631;28;21234;-58
2022/09/21 07:03:34;;;;;;;10.57;5.50;;;8.70;99.90;;;;;;5058011;28;20781;-58
2022/09/21 07:06:00;;;;;;;8.50;4.93;;;8.80;99.90;;;;;;5045483;28;20056;-59
2022/09/21 07:08:26;;;;;;;9.40;4.70;;;9.00;99.90;;;;;;5060560;28;20033;-57
2022/09/21 07:10:52;;;;;;;10.63;5.20;;;9.10;99.90;;;;;;5028390;28;20036;-57
2022/09/21 07:13:18;;;;;;;9.90;5.65;;;9.20;99.90;;;;;;5057489;28;20037;-59
2022/09/21 07:15:44;;;;;;;9.75;5.40;;;9.40;99.90;;;;;;5049532;28;20047;-58
2022/09/21 07:18:13;;;;;;;10.48;5.22;;;9.50;99.90;;;;;;5054826;28;20045;-61
2022/09/21 07:20:40;;;;;;;7.38;4.60;;;9.60;99.90;;;;;;5055690;28;20052;-57
2022/09/21 07:23:17;;;;;;;12.10;5.22;;;9.70;99.90;;;;;;5054393;28;20053;-58
2022/09/21 07:25:51;;;;;;;14.02;4.80;;;9.90;99.90;;;;;;5061368;28;20044;-57
2022/09/21 07:28:18;;;;;;;8.18;4.70;;;10.00;99.90;;;;;;5048661;28;20135;-58
2022/09/21 07:30:43;;;;;;;15.05;5.05;;;10.10;99.90;;;;;;5061453;28;20047;-58
2022/09/21 07:33:09;;;;;;;10.75;4.60;;;10.20;99.90;;;;;;5052761;28;20394;-58
2022/09/21 07:35:35;;;;;;;10.00;4.80;;;10.30;99.90;;;;;;5059080;28;20037;-58
2022/09/21 07:38:03;;;;;;;13.90;4.28;;;10.50;99.90;;;;;;5048801;28;20040;-59
2022/09/21 07:40:29;;;;;;;10.15;4.07;;;10.60;99.90;;;;;;5046746;28;20746;-58
2022/09/21 07:43:01;;;;;;;11.40;3.88;;;10.70;99.90;;;;;;5046241;28;20047;-59
2022/09/21 07:45:26;;;;;;;9.82;3.58;;;10.80;99.90;;;;;;5063425;28;20052;-58
2022/09/21 07:47:55;;;;;;;6.72;3.38;;;11.00;99.90;;;;;;5048389;28;20182;-58
2022/09/21 07:50:21;;;;;;;10.18;4.20;;;11.20;99.90;;;;;;5061830;28;20041;-58
2022/09/21 07:52:47;;;;;;;8.63;3.90;;;11.30;99.90;;;;;;5051827;28;20048;-57
2022/09/21 07:55:14;;;;;;;11.50;3.78;;;11.30;99.90;;;;;;5058091;28;20139;-58
2022/09/21 08:00:24;;;;;;;10.73;2.88;;;11.60;99.90;;;;;;5051325;28;20053;-58
2022/09/21 08:02:50;;;;;;;7.47;3.22;;;11.70;99.90;;;;;;5062623;28;20057;-57
2022/09/21 08:05:16;;;;;;;8.52;3.08;;;11.80;99.90;;;;;;5046984;28;20060;-58
2022/09/21 08:07:42;;;;;;;8.85;3.03;;;11.90;99.90;;;;;;5063450;28;20415;-57
2022/09/21 08:10:08;;;;;;;11.15;3.35;;;11.90;99.90;;;;;;5050694;28;20047;-57
2022/09/21 08:12:34;;;;;;;10.32;3.15;;;12.00;99.90;;;;;;5058682;28;20041;-57
2022/09/21 08:15:00;;;;;;;9.10;3.25;;;12.10;99.90;;;;;;5049631;28;20048;-58
2022/09/21 08:17:25;;;;;;;6.78;3.03;;;12.20;99.90;;;;;;5062816;28;20032;-59
2022/09/21 08:19:51;;;;;;;9.32;2.60;;;12.30;99.90;;;;;;5053998;28;20091;-58
2022/09/21 08:22:17;;;;;;;7.45;2.58;;;12.50;99.90;;;;;;5045210;28;20055;-57
2022/09/21 08:24:43;;;;;;;10.43;3.08;;;12.60;99.90;;;;;;5045187;28;20180;-59
2022/09/21 08:27:10;;;;;;;9.43;2.38;;;12.60;99.90;;;;;;5044735;28;20124;-58
2022/09/21 08:29:35;;;;;;;9.95;2.50;;;12.70;99.90;;;;;;5045717;28;20060;-59
2022/09/21 08:32:02;;;;;;;8.77;1.75;;;13.00;99.90;;;;;;5048904;28;20033;-58
2022/09/21 08:34:28;;;;;;;10.98;1.70;;;13.10;99.90;;;;;;5058879;28;20041;-61
2022/09/21 08:36:53;;;;;;;8.40;1.30;;;13.20;99.90;;;;;;5054127;28;20040;-59
2022/09/21 08:39:19;;;;;;;6.15;1.25;;;13.30;99.90;;;;;;5054345;28;20454;-57
2022/09/21 08:41:56;;;;;;;6.93;1.50;;;13.40;99.90;;;;;;5058183;28;20040;-58
2022/09/21 08:44:26;;;;;;;9.77;1.77;;;13.40;99.90;;;;;;5048806;28;20056;-59
2022/09/21 08:47:18;;;;;;;12.00;1.70;;;13.60;99.90;;;;;;5062254;28;20201;-58
2022/09/21 08:49:50;;;;;;;12.18;1.85;;;13.80;99.90;;;;;;5050766;28;20047;-59
2022/09/21 08:52:19;;;;;;;6.78;1.60;;;14.00;99.90;;;;;;5055841;28;20094;-57
2022/09/21 08:54:55;;;;;;;9.05;1.85;;;14.20;99.90;;;;;;5056640;28;20052;-58
2022/09/21 08:57:28;;;;;;;5.82;1.48;;;14.30;99.90;;;;;;5050202;28;20439;-60
2022/09/21 08:59:54;;;;;;;12.82;3.50;;;14.80;99.90;;;;;;5062957;28;20445;-56
2022/09/21 09:02:41;;;;;;;7.50;1.40;;;15.50;99.90;;;;;;5046592;28;20048;-62
2022/09/21 09:05:31;;;;;;;6.82;1.48;;;16.20;99.90;;;;;;5057170;28;20129;-63
2022/09/21 09:08:19;;;;;;;5.18;1.10;;;16.40;99.90;;;;;;5056543;28;20078;-64
2022/09/21 09:11:11;;;;;;;7.47;1.50;;;17.20;99.90;;;;;;5046197;28;20064;-63
2022/09/21 09:14:04;;;;;;;5.63;1.45;;;17.60;99.90;;;;;;5041073;28;20400;-63
2022/09/21 09:16:45;;;;;;;7.68;1.38;;;17.90;99.90;;;;;;5052843;28;20454;-63
2022/09/21 09:19:45;;;;;;;6.10;1.30;;;17.80;99.90;;;;;;5058277;28;20110;-63
2022/09/21 09:22:18;;;;;;;9.70;1.77;;;17.70;99.90;;;;;;5047183;28;20060;-63
2022/09/21 09:24:50;;;;;;;6.30;1.40;;;18.30;99.90;;;;;;5057687;28;20044;-63
2022/09/21 09:27:38;;;;;;;6.45;1.25;;;19.00;99.90;;;;;;5052648;28;20040;-63
2022/09/21 09:30:24;;;;;;;5.05;1.20;;;19.00;99.90;;;;;;5049705;28;20041;-64
2022/09/21 09:32:55;;;;;;;7.57;1.55;;;18.40;99.90;;;;;;5061853;28;20045;-63
2022/09/21 09:35:32;;;;;;;3.85;0.70;;;17.40;99.90;;;;;;5046484;28;20423;-62
2022/09/21 09:38:18;;;;;;;5.78;1.10;;;16.20;99.90;;;;;;5056260;28;20049;-63
2022/09/21 09:41:20;;;;;;;7.47;0.77;;;15.90;99.90;;;;;;5009594;28;20914;-63
2022/09/21 09:43:46;;;;;;;8.02;1.13;;;15.60;99.90;;;;;;5042581;28;20044;-63
2022/09/21 09:46:19;;;;;;;5.38;1.27;;;15.60;99.90;;;;;;5060051;28;20036;-63
2022/09/21 09:48:53;;;;;;;7.95;1.10;;;15.50;99.90;;;;;;5049535;28;20220;-63
2022/09/21 09:51:19;;;;;;;;;;;15.40;99.90;;;;;;5054154;28;20459;-63
2022/09/21 09:53:45;;;;;;;5.05;0.98;;;15.90;99.90;;;;;;5054803;28;19964;-64
2022/09/21 09:56:13;;;;;;;4.80;0.90;;;16.40;99.90;;;;;;5049692;28;20380;-63
2022/09/21 09:58:59;;;;;;;6.18;1.08;;;16.70;99.90;;;;;;5059357;28;20055;-63
2022/09/21 10:01:46;;;;;;;10.38;1.42;;;17.20;99.90;;;;;;5028102;28;20050;-63
2022/09/21 10:04:14;;;;;;;4.57;0.80;;;17.60;99.90;;;;;;5055705;28;20107;-63
2022/09/21 10:06:40;;;;;;;6.40;0.85;;;17.60;99.90;;;;;;5053069;28;20045;-65
2022/09/21 10:09:28;;;;;;;3.28;0.68;;;16.90;99.90;;;;;;5051161;28;20074;-64
2022/09/21 10:12:23;;;;;;;5.82;1.02;;;16.10;99.90;;;;;;5059997;28;20553;-63
2022/09/21 10:14:52;;;;;;;5.78;1.08;;;15.80;99.90;;;;;;5048457;28;20136;-63
2022/09/21 10:17:18;;;;;;;4.85;0.90;;;15.50;99.90;;;;;;5055307;28;20037;-63
2022/09/21 10:19:45;;;;;;;6.97;1.08;;;15.60;99.90;;;;;;5051782;28;20079;-62
2022/09/21 10:22:18;;;;;;;5.65;1.00;;;16.00;99.90;;;;;;5050806;28;20053;-63
2022/09/21 10:24:53;;;;;;;3.45;0.80;;;16.50;99.90;;;;;;5058193;28;20055;-63
2022/09/21 10:27:26;;;;;;;3.75;1.00;;;16.30;99.90;;;;;;5044435;28;20120;-63
2022/09/21 10:29:52;;;;;;;6.35;0.80;;;16.70;99.90;;;;;;5045761;28;20086;-63
2022/09/21 10:32:25;;;;;;;6.47;0.90;;;16.40;99.90;;;;;;5057461;28;20049;-63
2022/09/21 10:35:06;;;;;;;6.65;1.35;;;16.00;99.90;;;;;;5050783;28;20044;-63
2022/09/21 10:37:36;;;;;;;5.78;1.25;;;15.80;99.90;;;;;;5050608;28;20045;-63
2022/09/21 10:40:02;;;;;;;4.97;0.93;;;16.40;99.90;;;;;;5057789;28;20049;-64
2022/09/21 10:42:40;;;;;;;3.42;0.90;;;17.00;99.90;;;;;;5045576;28;20045;-63
2022/09/21 10:45:15;;;;;;;6.63;1.23;;;16.80;99.90;;;;;;5044222;28;20052;-63
2022/09/21 10:47:51;;;;;;;;;;;16.40;99.90;;;;;;5057731;28;20083;-63
2022/09/21 10:50:21;;;;;;;9.60;1.23;;;16.00;99.90;;;;;;5050839;28;19920;-63
2022/09/21 10:52:48;;;;;;;4.60;0.80;;;16.00;99.90;;;;;;5051208;28;20665;-62
2022/09/21 10:55:21;;;;;;;3.30;0.60;;;16.00;99.90;;;;;;5059698;28;20052;-62
2022/09/21 10:57:48;;;;;;;5.32;0.98;;;16.10;99.90;;;;;;5051795;28;20077;-65
2022/09/21 11:00:23;;;;;;;4.18;0.90;;;16.60;99.90;;;;;;5066513;28;20048;-63
2022/09/21 11:02:49;;;;;;;;;;;17.00;99.90;;;;;;5053515;28;20037;-64
2022/09/21 11:05:28;;;;;;;4.25;0.73;;;17.10;99.90;;;;;;5060531;28;21183;-64
2022/09/21 11:08:06;;;;;;;3.97;0.70;;;17.30;99.90;;;;;;5056966;28;20044;-62
2022/09/21 11:11:02;;;;;;;3.33;0.55;;;17.90;99.90;;;;;;5054666;28;20056;-65
2022/09/21 11:13:38;;;;;;;7.93;1.30;;;18.50;99.90;;;;;;5066352;28;20048;-63
2022/09/21 11:16:21;;;;;;;5.07;0.68;;;19.10;99.90;;;;;;5051949;28;20380;-62
2022/09/21 11:19:25;;;;;;;4.20;0.85;;;18.80;99.90;;;;;;5057980;28;20048;-63
2022/09/21 11:22:20;;;;;;;14.45;2.40;;;19.00;99.90;;;;;;5019308;28;20562;-64
2022/09/21 11:25:27;;;;;;;31.88;5.13;;;19.10;99.90;;;;;;5047820;28;20048;-63
2022/09/21 11:28:01;;;;;;;4.70;1.00;;;19.20;99.90;;;;;;5055350;28;20057;-63
2022/09/21 11:30:38;;;;;;;9.23;1.00;;;18.70;99.90;;;;;;5063325;28;20052;-63
2022/09/21 11:33:13;;;;;;;4.88;0.80;;;18.50;99.90;;;;;;5049708;28;20045;-62
2022/09/21 11:35:41;;;;;;;;;;;18.20;99.90;;;;;;5063086;28;20045;-63
2022/09/21 11:38:25;;;;;;;3.88;0.82;;;18.50;99.90;;;;;;5055398;28;20283;-63
2022/09/21 11:41:10;;;;;;;31.15;2.90;;;18.30;99.90;;;;;;5056351;28;20049;-63
2022/09/21 11:43:57;;;;;;;11.65;2.10;;;18.90;99.90;;;;;;5064364;28;20411;-62
2022/09/21 11:46:40;;;;;;;11.52;1.63;;;19.50;99.90;;;;;;5049574;28;20064;-63
2022/09/21 11:49:40;;;;;;;10.43;1.88;;;19.60;99.90;;;;;;5057472;28;20052;-65
2022/09/21 11:52:35;;;;;;;7.85;1.25;;;19.90;99.90;;;;;;5049176;28;20045;-63
2022/09/21 11:55:25;;;;;;;6.03;0.98;;;20.10;99.90;;;;;;5048873;28;20055;-62
2022/09/21 11:57:59;;;;;;;7.97;1.17;;;20.30;99.90;;;;;;5059959;28;20049;-65
2022/09/21 12:00:29;;;;;;;;;;;20.60;99.90;;;;;;5058310;28;20064;-63
2022/09/21 12:03:25;;;;;;;16.15;1.83;;;20.70;99.90;;;;;;5054091;28;20074;-65
2022/09/21 12:06:16;;;;;;;3.22;0.70;;;20.80;99.90;;;;;;5064110;28;20040;-63
2022/09/21 12:08:42;;;;;;;5.57;0.90;;;20.20;99.90;;;;;;5054534;28;20052;-64
2022/09/21 12:11:25;;;;;;;4.35;0.85;;;20.60;99.90;;;;;;5058973;28;20071;-63
2022/09/21 12:14:01;;;;;;;4.03;0.82;;;20.60;99.90;;;;;;5060898;28;20087;-63
2022/09/21 12:16:52;;;;;;;2.20;0.63;;;20.40;99.90;;;;;;5050217;28;20120;-62
2022/09/21 12:19:41;;;;;;;3.92;0.75;;;19.80;99.90;;;;;;5050226;28;20033;-63
2022/09/21 12:22:25;;;;;;;4.65;1.02;;;19.80;99.90;;;;;;5055382;28;20106;-66
2022/09/21 12:25:23;;;;;;;3.67;0.90;;;19.90;99.90;;;;;;5061000;28;20044;-62
2022/09/21 12:27:58;;;;;;;3.35;0.60;;;19.50;99.90;;;;;;5048587;28;20068;-62
2022/09/21 12:30:24;;;;;;;6.35;0.80;;;18.70;99.90;;;;;;5061628;28;20431;-63
2022/09/21 12:33:05;;;;;;;3.05;0.73;;;19.10;99.90;;;;;;5054158;28;20040;-63
2022/09/21 12:35:48;;;;;;;6.10;0.93;;;19.50;99.90;;;;;;5054504;28;20085;-63
2022/09/21 12:38:27;;;;;;;4.35;0.70;;;19.80;99.90;;;;;;5061322;28;20064;-65
2022/09/21 12:41:15;;;;;;;4.55;1.17;;;19.90;99.90;;;;;;5049067;28;20604;-65
2022/09/21 12:43:52;;;;;;;6.32;1.23;;;20.00;99.90;;;;;;5059752;28;20129;-63
2022/09/21 12:46:25;;;;;;;3.22;0.77;;;20.00;99.90;;;;;;5056926;28;20093;-62
2022/09/21 12:48:51;;;;;;;4.40;0.70;;;20.40;99.90;;;;;;5052487;28;20741;-63
2022/09/21 12:51:27;;;;;;;4.70;0.88;;;20.30;99.90;;;;;;5061410;28;20391;-64
2022/09/21 12:53:57;;;;;;;6.43;0.80;;;20.50;99.90;;;;;;5048776;28;20048;-62
2022/09/21 12:56:26;;;;;;;2.30;0.57;;;20.40;99.90;;;;;;5062542;28;20109;-62
2022/09/21 12:59:10;;;;;;;4.70;0.73;;;20.40;99.90;;;;;;5052796;28;20411;-63
2022/09/21 13:01:41;;;;;;;2.40;0.85;;;19.90;99.90;;;;;;5054753;28;20098;-62
2022/09/21 13:04:22;;;;;;;6.18;0.90;;;20.10;99.90;;;;;;5057928;28;20579;-64
2022/09/21 13:07:22;;;;;;;3.40;0.63;;;20.30;99.90;;;;;;5048881;28;20075;-63
2022/09/21 13:09:49;;;;;;;2.58;0.63;;;20.30;99.90;;;;;;5064306;28;20052;-62
2022/09/21 13:12:27;;;;;;;4.50;0.88;;;20.60;99.90;;;;;;5057072;28;20045;-63
2022/09/21 13:15:25;;;;;;;5.72;1.13;;;20.70;99.90;;;;;;5057938;28;20123;-62
2022/09/21 13:18:04;;;;;;;5.82;0.95;;;20.50;99.90;;;;;;5040455;28;20056;-63
2022/09/21 13:20:40;;;;;;;2.67;0.70;;;20.40;99.90;;;;;;5059924;28;20128;-62
2022/09/21 13:23:17;;;;;;;2.85;0.73;;;20.50;99.90;;;;;;5053423;28;20392;-63
2022/09/21 13:26:07;;;;;;;4.75;0.88;;;20.30;99.90;;;;;;5054885;28;20432;-62